Time,TemperatureF,DewpointF,PressureIn,WindDirection,WindDirectionDegrees,WindSpeedMPH,WindSpeedGustMPH,Humidity,HourlyPrecipIn,Conditions,Clouds,dailyrainin,SoftwareType,DateUTC
2013-05-12 00:00:00,-999.0,-99.9,26.27,North,-999,-999.0,-999.0,-999,0.00,,,0.12,weatherlink.com 1.10,2013-05-12 04:00:00,
2013-05-12 00:15:00,-999.0,-99.9,26.27,North,-999,-999.0,-999.0,-999,0.00,,,0.12,weatherlink.com 1.10,2013-05-12 04:15:00,
2013-05-12 00:30:00,-999.0,-99.9,26.28,North,-999,-999.0,-999.0,-999,0.00,,,0.12,weatherlink.com 1.10,2013-05-12 04:30:00,
2013-05-12 00:45:00,-999.0,-99.9,26.28,North,-999,-999.0,-999.0,-999,0.00,,,0.12,weatherlink.com 1.10,2013-05-12 04:45:00,
2013-05-12 01:00:00,-999.0,-99.9,26.27,North,-999,-999.0,-999.0,-999,0.00,,,0.12,weatherlink.com 1.10,2013-05-12 05:00:00,
2013-05-12 01:15:00,-999.0,-99.9,26.27,North,-999,-999.0,-999.0,-999,0.00,,,0.00,weatherlink.com 1.10,2013-05-12 05:15:00,
2013-05-12 01:30:00,-999.0,-99.9,26.27,North,-999,-999.0,-999.0,-999,0.00,,,0.00,weatherlink.com 1.10,2013-05-12 05:30:00,
2013-05-12 01:45:00,-999.0,-99.9,26.27,North,-999,-999.0,-999.0,-999,0.00,,,0.00,weatherlink.com 1.10,2013-05-12 05:45:00,
2013-05-12 02:00:00,-999.0,-99.9,26.27,North,-999,-999.0,-999.0,-999,0.00,,,0.00,weatherlink.com 1.10,2013-05-12 06:00:00,
2013-05-12 02:15:00,-999.0,-99.9,26.27,North,-999,-999.0,-999.0,-999,0.00,,,0.00,weatherlink.com 1.10,2013-05-12 06:15:00,
2013-05-12 02:30:00,-999.0,-99.9,26.27,North,-999,-999.0,-999.0,-999,0.00,,,0.00,weatherlink.com 1.10,2013-05-12 06:30:00,
2013-05-12 02:45:00,-999.0,-99.9,26.26,North,-999,-999.0,-999.0,-999,0.00,,,0.00,weatherlink.com 1.10,2013-05-12 06:45:00,
2013-05-12 03:00:00,-999.0,-99.9,26.25,North,-999,-999.0,-999.0,-999,0.00,,,0.00,weatherlink.com 1.10,2013-05-12 07:00:00,
2013-05-12 03:16:00,-999.0,-99.9,26.25,North,-999,-999.0,-999.0,-999,0.00,,,0.00,weatherlink.com 1.10,2013-05-12 07:16:00,
2013-05-12 03:31:00,-999.0,-99.9,26.25,North,-999,-999.0,-999.0,-999,0.00,,,0.00,weatherlink.com 1.10,2013-05-12 07:31:00,
2013-05-12 03:46:00,-999.0,-99.9,26.25,North,-999,-999.0,-999.0,-999,0.00,,,0.00,weatherlink.com 1.10,2013-05-12 07:46:00,
2013-05-12 04:01:00,-999.0,-99.9,26.25,North,-999,-999.0,-999.0,-999,0.00,,,0.00,weatherlink.com 1.10,2013-05-12 08:01:00,
2013-05-12 04:16:00,-999.0,-99.9,26.24,North,-999,-999.0,-999.0,-999,0.00,,,0.00,weatherlink.com 1.10,2013-05-12 08:16:00,
2013-05-12 04:31:00,-999.0,-99.9,26.23,North,-999,-999.0,-999.0,-999,0.00,,,0.00,weatherlink.com 1.10,2013-05-12 08:31:00,
2013-05-12 04:46:00,-999.0,-99.9,26.23,North,-999,-999.0,-999.0,-999,0.00,,,0.00,weatherlink.com 1.10,2013-05-12 08:46:00,
2013-05-12 05:01:00,-999.0,-99.9,26.25,North,-999,-999.0,-999.0,-999,0.00,,,0.00,weatherlink.com 1.10,2013-05-12 09:01:00,
2013-05-12 05:16:00,-999.0,-99.9,26.25,North,-999,-999.0,-999.0,-999,0.00,,,0.00,weatherlink.com 1.10,2013-05-12 09:16:00,
2013-05-12 05:31:00,-999.0,-99.9,26.24,North,-999,-999.0,-999.0,-999,0.00,,,0.00,weatherlink.com 1.10,2013-05-12 09:31:00,
2013-05-12 05:46:00,-999.0,-99.9,26.25,North,-999,-999.0,-999.0,-999,0.00,,,0.00,weatherlink.com 1.10,2013-05-12 09:46:00,
2013-05-12 06:01:00,-999.0,-99.9,26.25,North,-999,-999.0,-999.0,-999,0.00,,,0.00,weatherlink.com 1.10,2013-05-12 10:01:00,
2013-05-12 06:16:00,-999.0,-99.9,26.26,North,-999,-999.0,-999.0,-999,0.00,,,0.00,weatherlink.com 1.10,2013-05-12 10:16:00,
2013-05-12 06:31:00,-999.0,-99.9,26.25,North,-999,-999.0,-999.0,-999,0.00,,,0.00,weatherlink.com 1.10,2013-05-12 10:31:00,
2013-05-12 06:47:00,-999.0,-99.9,26.26,North,-999,-999.0,-999.0,-999,0.00,,,0.00,weatherlink.com 1.10,2013-05-12 10:47:00,
2013-05-12 07:02:00,-999.0,-99.9,26.26,North,-999,-999.0,-999.0,-999,0.00,,,0.00,weatherlink.com 1.10,2013-05-12 11:02:00,
2013-05-12 07:17:00,48.3,41.0,26.27,NNW,334,6.0,15.0,77,0.00,,,0.00,weatherlink.com 1.10,2013-05-12 11:17:00,
2013-05-12 07:32:00,48.6,42.0,26.27,NNW,331,6.0,13.0,77,0.00,,,0.00,weatherlink.com 1.10,2013-05-12 11:32:00,
2013-05-12 07:48:00,48.0,40.0,26.27,West,263,5.0,16.0,75,0.00,,,0.00,weatherlink.com 1.10,2013-05-12 11:48:00,
2013-05-12 08:02:00,48.0,40.0,26.27,NNW,327,5.0,17.0,74,0.00,,,0.00,weatherlink.com 1.10,2013-05-12 12:02:00,
2013-05-12 08:17:00,48.5,39.0,26.27,NNW,331,9.0,24.0,69,0.00,,,0.00,weatherlink.com 1.10,2013-05-12 12:17:00,
2013-05-12 08:32:00,48.3,39.0,26.28,NW,322,7.0,26.0,70,0.00,,,0.00,weatherlink.com 1.10,2013-05-12 12:32:00,
2013-05-12 08:47:00,48.3,39.0,26.29,WSW,237,17.0,25.0,70,0.00,,,0.00,weatherlink.com 1.10,2013-05-12 12:47:00,
2013-05-12 09:02:00,48.3,39.0,26.29,WSW,238,9.0,13.0,70,0.00,,,0.00,weatherlink.com 1.10,2013-05-12 13:02:00,
2013-05-12 09:17:00,47.6,37.0,26.30,West,275,6.0,15.0,68,0.00,,,0.00,weatherlink.com 1.10,2013-05-12 13:17:00,
2013-05-12 09:32:00,48.3,39.0,26.30,West,265,4.0,18.0,69,0.00,,,0.00,weatherlink.com 1.10,2013-05-12 13:32:00,
2013-05-12 09:47:00,48.0,38.0,26.30,SW,231,5.0,17.0,68,0.00,,,0.00,weatherlink.com 1.10,2013-05-12 13:47:00,
2013-05-12 10:02:00,47.7,37.0,26.30,NNW,329,11.0,21.0,67,0.00,,,0.00,weatherlink.com 1.10,2013-05-12 14:02:00,
2013-05-12 10:17:00,47.3,37.0,26.30,WNW,292,6.0,25.0,67,0.00,,,0.00,weatherlink.com 1.10,2013-05-12 14:17:00,
2013-05-12 10:32:00,48.2,36.0,26.30,WNW,296,10.0,21.0,63,0.00,,,0.00,weatherlink.com 1.10,2013-05-12 14:32:00,
2013-05-12 10:47:00,48.3,37.0,26.30,NNW,331,6.0,22.0,65,0.00,,,0.00,weatherlink.com 1.10,2013-05-12 14:47:00,
2013-05-12 11:02:00,48.5,35.0,26.30,SW,236,2.0,21.0,61,0.00,,,0.00,weatherlink.com 1.10,2013-05-12 15:02:00,
2013-05-12 11:17:00,48.8,36.0,26.30,NW,322,14.0,20.0,61,0.00,,,0.00,weatherlink.com 1.10,2013-05-12 15:17:00,
2013-05-12 11:32:00,48.6,33.0,26.31,WSW,242,29.0,29.0,56,0.00,,,0.00,weatherlink.com 1.10,2013-05-12 15:32:00,
2013-05-12 11:47:00,48.8,36.0,26.31,West,263,9.0,17.0,61,0.00,,,0.00,weatherlink.com 1.10,2013-05-12 15:47:00,
2013-05-12 12:02:00,49.4,35.0,26.31,West,262,6.0,15.0,59,0.00,,,0.00,weatherlink.com 1.10,2013-05-12 16:02:00,
2013-05-12 12:17:00,48.0,35.0,26.32,NNW,340,25.0,26.0,61,0.00,,,0.00,weatherlink.com 1.10,2013-05-12 16:17:00,
2013-05-12 12:32:00,48.0,34.0,26.32,NNW,331,11.0,21.0,58,0.00,,,0.00,weatherlink.com 1.10,2013-05-12 16:32:00,
2013-05-12 12:47:00,47.9,34.0,26.32,NNW,330,10.0,29.0,58,0.00,,,0.00,weatherlink.com 1.10,2013-05-12 16:47:00,
2013-05-12 13:02:00,48.2,34.0,26.32,NNW,327,17.0,29.0,58,0.00,,,0.00,weatherlink.com 1.10,2013-05-12 17:02:00,
2013-05-12 13:17:00,49.4,33.0,26.33,NNW,338,16.0,24.0,54,0.00,,,0.00,weatherlink.com 1.10,2013-05-12 17:17:00,
2013-05-12 13:32:00,48.9,33.0,26.32,NW,306,9.0,25.0,55,0.00,,,0.00,weatherlink.com 1.10,2013-05-12 17:32:00,
2013-05-12 13:47:00,49.2,33.0,26.33,North,5,16.0,25.0,54,0.00,,,0.00,weatherlink.com 1.10,2013-05-12 17:47:00,
2013-05-12 14:02:00,49.6,31.0,26.33,West,270,7.0,26.0,50,0.00,,,0.00,weatherlink.com 1.10,2013-05-12 18:02:00,
2013-05-12 14:17:00,50.5,32.0,26.33,NNW,344,16.0,22.0,50,0.00,,,0.00,weatherlink.com 1.10,2013-05-12 18:17:00,
2013-05-12 14:32:00,49.9,31.0,26.33,NNW,344,18.0,30.0,49,0.00,,,0.00,weatherlink.com 1.10,2013-05-12 18:32:00,
2013-05-12 14:47:00,50.5,34.0,26.33,NNW,344,13.0,18.0,54,0.00,,,0.00,weatherlink.com 1.10,2013-05-12 18:47:00,
2013-05-12 15:02:00,50.5,31.0,26.33,NW,315,12.0,22.0,48,0.00,,,0.00,weatherlink.com 1.10,2013-05-12 19:02:00,
2013-05-12 15:17:00,50.7,31.0,26.33,NW,311,10.0,20.0,47,0.00,,,0.00,weatherlink.com 1.10,2013-05-12 19:17:00,
2013-05-12 15:32:00,50.7,31.0,26.33,WNW,283,10.0,24.0,48,0.00,,,0.00,weatherlink.com 1.10,2013-05-12 19:32:00,
2013-05-12 15:47:00,50.2,30.0,26.33,NNW,327,11.0,27.0,46,0.00,,,0.00,weatherlink.com 1.10,2013-05-12 19:47:00,
2013-05-12 16:02:00,50.8,32.0,26.32,West,260,10.0,25.0,48,0.00,,,0.00,weatherlink.com 1.10,2013-05-12 20:02:00,
2013-05-12 16:17:00,51.0,32.0,26.33,NNW,340,7.0,17.0,48,0.00,,,0.00,weatherlink.com 1.10,2013-05-12 20:17:00,
2013-05-12 16:32:00,50.4,31.0,26.32,NNW,332,12.0,28.0,47,0.00,,,0.00,weatherlink.com 1.10,2013-05-12 20:32:00,
2013-05-12 16:47:00,51.1,33.0,26.33,NNW,339,14.0,19.0,51,0.00,,,0.00,weatherlink.com 1.10,2013-05-12 20:47:00,
2013-05-12 17:02:00,50.2,30.0,26.33,NNW,329,11.0,19.0,47,0.00,,,0.00,weatherlink.com 1.10,2013-05-12 21:02:00,
2013-05-12 17:17:00,49.8,31.0,26.33,NNW,348,16.0,23.0,48,0.00,,,0.00,weatherlink.com 1.10,2013-05-12 21:17:00,
2013-05-12 17:32:00,50.1,31.0,26.34,NW,321,7.0,16.0,48,0.00,,,0.00,weatherlink.com 1.10,2013-05-12 21:32:00,
2013-05-12 17:47:00,50.1,31.0,26.34,NNW,333,2.0,21.0,49,0.00,,,0.00,weatherlink.com 1.10,2013-05-12 21:47:00,
2013-05-12 18:03:00,50.1,33.0,26.35,South,186,3.0,14.0,52,0.00,,,0.00,weatherlink.com 1.10,2013-05-12 22:03:00,
2013-05-12 18:18:00,50.2,32.0,26.35,WNW,302,2.0,15.0,50,0.00,,,0.00,weatherlink.com 1.10,2013-05-12 22:18:00,
2013-05-12 18:33:00,49.8,30.0,26.35,NW,315,6.0,13.0,47,0.00,,,0.00,weatherlink.com 1.10,2013-05-12 22:33:00,
2013-05-12 18:48:00,49.4,30.0,26.35,NNW,341,3.0,14.0,47,0.00,,,0.00,weatherlink.com 1.10,2013-05-12 22:48:00,
2013-05-12 19:03:00,49.1,30.0,26.36,NW,314,7.0,13.0,48,0.00,,,0.00,weatherlink.com 1.10,2013-05-12 23:03:00,
2013-05-12 19:18:00,49.1,32.0,26.36,NNW,335,5.0,11.0,53,0.00,,,0.00,weatherlink.com 1.10,2013-05-12 23:18:00,
2013-05-12 19:33:00,48.2,30.0,26.37,West,271,4.0,14.0,50,0.00,,,0.00,weatherlink.com 1.10,2013-05-12 23:33:00,
2013-05-12 19:48:00,47.9,29.0,26.37,NW,315,7.0,12.0,49,0.00,,,0.00,weatherlink.com 1.10,2013-05-12 23:48:00,
2013-05-12 20:03:00,48.0,31.0,26.36,NNW,327,2.0,12.0,53,0.00,,,0.00,weatherlink.com 1.10,2013-05-13 00:03:00,
2013-05-12 20:18:00,-999.0,-99.9,26.36,North,-999,-999.0,-999.0,-999,0.00,,,0.00,weatherlink.com 1.10,2013-05-13 00:18:00,
2013-05-12 20:33:00,-999.0,-99.9,26.36,North,-999,-999.0,-999.0,-999,0.00,,,0.00,weatherlink.com 1.10,2013-05-13 00:33:00,
2013-05-12 20:48:00,-999.0,-99.9,26.37,North,-999,-999.0,-999.0,-999,0.00,,,0.00,weatherlink.com 1.10,2013-05-13 00:48:00,
2013-05-12 21:03:00,-999.0,-99.9,26.37,North,-999,-999.0,-999.0,-999,0.00,,,0.00,weatherlink.com 1.10,2013-05-13 01:03:00,
2013-05-12 21:18:00,-999.0,-99.9,26.37,North,-999,-999.0,-999.0,-999,0.00,,,0.00,weatherlink.com 1.10,2013-05-13 01:18:00,
2013-05-12 21:33:00,-999.0,-99.9,26.37,North,-999,-999.0,-999.0,-999,0.00,,,0.00,weatherlink.com 1.10,2013-05-13 01:33:00,
2013-05-12 21:48:00,-999.0,-99.9,26.37,North,-999,-999.0,-999.0,-999,0.00,,,0.00,weatherlink.com 1.10,2013-05-13 01:48:00,
2013-05-12 22:03:00,-999.0,-99.9,26.38,North,-999,-999.0,-999.0,-999,0.00,,,0.00,weatherlink.com 1.10,2013-05-13 02:03:00,
2013-05-12 22:18:00,-999.0,-99.9,26.38,North,-999,-999.0,-999.0,-999,0.00,,,0.00,weatherlink.com 1.10,2013-05-13 02:18:00,
2013-05-12 22:33:00,-999.0,-99.9,26.37,North,-999,-999.0,-999.0,-999,0.00,,,0.00,weatherlink.com 1.10,2013-05-13 02:33:00,
2013-05-12 22:48:00,-999.0,-99.9,26.37,North,-999,-999.0,-999.0,-999,0.00,,,0.00,weatherlink.com 1.10,2013-05-13 02:48:00,
2013-05-12 23:04:00,-999.0,-99.9,26.38,North,-999,-999.0,-999.0,-999,0.00,,,0.00,weatherlink.com 1.10,2013-05-13 03:04:00,
2013-05-12 23:19:00,-999.0,-99.9,26.38,North,-999,-999.0,-999.0,-999,0.00,,,0.00,weatherlink.com 1.10,2013-05-13 03:19:00,
2013-05-12 23:34:00,-999.0,-99.9,26.38,North,-999,-999.0,-999.0,-999,0.00,,,0.00,weatherlink.com 1.10,2013-05-13 03:34:00,
2013-05-12 23:49:00,-999.0,-99.9,26.38,North,-999,-999.0,-999.0,-999,0.00,,,0.00,weatherlink.com 1.10,2013-05-13 03:49:00,